Time;durP1;ratioP1;P1;durP2;ratioP2;P2;SDS_P1;SDS_P2;PMS_P1;PMS_P2;Temp;Humidity;BMP_temperature;BMP_pressure;BME280_temperature;BME280_humidity;BME280_pressure;Samples;Min_cycle;Max_cycle;Signal;HPM_P1;HPM_P2
2023/11/14 00:01:26;;;;;;;;;;;;;;;14.26;nan;99665.66;5043418;28;20392;-89
2023/11/14 00:03:52;;;;;;;;;;;;;;;14.30;nan;99659.38;5047654;28;19920;-90
2023/11/14 00:06:17;;;;;;;;;;;;;;;14.31;nan;99662.88;5043729;28;20391;-89
2023/11/14 00:08:42;;;;;;;;;;;;;;;14.35;nan;99661.16;5043725;28;19924;-90
2023/11/14 00:11:10;;;;;;;;;;;;;;;14.37;nan;99662.50;5047092;28;19947;-90
2023/11/14 00:13:36;;;;;;;;;;;;;;;14.38;nan;99655.19;5047913;28;19917;-89
2023/11/14 00:16:01;;;;;;;;;;;;;;;14.41;nan;99652.69;5047255;28;19924;-88
2023/11/14 00:18:26;;;;;;;;;;;;;;;14.39;nan;99662.19;5044521;28;20396;-89
2023/11/14 00:20:54;;;;;;;;;;;;;;;14.38;nan;99655.19;5046422;28;19917;-89
2023/11/14 00:23:20;;;;;;;;;;;;;;;14.39;nan;99651.41;5040002;28;19948;-89
2023/11/14 00:25:45;;;;;;;;;;;;;;;14.42;nan;99656.19;5051608;28;19937;-90
2023/11/14 00:28:10;;;;;;;;;;;;;;;14.43;nan;99657.78;5044990;28;20442;-90
2023/11/14 00:30:39;;;;;;;;;;;;;;;14.44;nan;99660.22;5044212;28;20213;-90
2023/11/14 00:33:04;;;;;;;;;;;;;;;14.40;nan;99669.97;5050086;28;19916;-89
2023/11/14 00:35:31;;;;;;;;;;;;;;;14.38;nan;99671.38;5026652;28;19971;-89
2023/11/14 00:37:56;;;;;;;;;;;;;;;14.29;nan;99678.53;5044537;28;19927;-89
2023/11/14 00:40:22;;;;;;;;;;;;;;;14.24;nan;99675.94;5048621;28;19917;-89
2023/11/14 00:42:48;;;;;;;;;;;;;;;14.25;nan;99672.16;5047412;28;19964;-90
2023/11/14 00:45:13;;;;;;;;;;;;;;;14.25;nan;99680.25;5045709;28;19916;-91
2023/11/14 00:47:39;;;;;;;;;;;;;;;14.22;nan;99678.94;5042632;28;19925;-90
2023/11/14 00:50:05;;;;;;;;;;;;;;;14.26;nan;99681.84;5035805;28;19916;-89
2023/11/14 00:52:30;;;;;;;;;;;;;;;14.29;nan;99678.53;5050507;28;19924;-90
2023/11/14 00:54:56;;;;;;;;;;;;;;;14.33;nan;99679.53;5051275;28;20365;-90
2023/11/14 00:57:22;;;;;;;;;;;;;;;14.35;nan;99671.94;5050644;28;19925;-90
2023/11/14 00:59:47;;;;;;;;;;;;;;;14.36;nan;99684.31;5034880;28;20501;-89
2023/11/14 01:02:12;;;;;;;;;;;;;;;14.40;nan;99679.94;5051330;28;19920;-90
2023/11/14 01:04:38;;;;;;;;;;;;;;;14.40;nan;99682.66;5044618;28;19948;-90
2023/11/14 01:07:05;;;;;;;;;;;;;;;14.41;nan;99676.97;5046900;28;19917;-90
2023/11/14 01:09:30;;;;;;;;;;;;;;;14.44;nan;99680.97;5049498;28;19971;-89
2023/11/14 01:11:55;;;;;;;;;;;;;;;14.50;nan;99688.66;5045376;28;19917;-89
2023/11/14 01:14:21;;;;;;;;;;;;;;;14.60;nan;99700.34;5045884;28;19917;-90
2023/11/14 01:16:46;;;;;;;;;;;;;;;14.62;nan;99696.25;5045022;28;20827;-89
2023/11/14 01:19:11;;;;;;;;;;;;;;;14.64;nan;99707.53;5047334;28;19921;-90
2023/11/14 01:21:37;;;;;;;;;;;;;;;14.71;nan;99713.31;5049780;28;20386;-88
2023/11/14 01:24:02;;;;;;;;;;;;;;;14.78;nan;99718.31;5039827;28;19980;-89
2023/11/14 01:26:34;;;;;;;;;;;;;;;14.86;nan;99717.59;5048031;28;20508;-89
2023/11/14 01:28:59;;;;;;;;;;;;;;;14.94;nan;99716.09;5051855;28;19921;-90
2023/11/14 01:31:24;;;;;;;;;;;;;;;15.00;nan;99714.88;5046428;28;19916;-89
2023/11/14 01:33:50;;;;;;;;;;;;;;;15.08;nan;99706.06;5051657;28;20004;-91
2023/11/14 01:36:15;;;;;;;;;;;;;;;15.16;nan;99704.56;5052099;28;20019;-90
2023/11/14 01:38:40;;;;;;;;;;;;;;;15.23;nan;99708.44;5048980;28;19929;-90
2023/11/14 01:41:06;;;;;;;;;;;;;;;15.29;nan;99707.25;5040577;28;20396;-90
2023/11/14 01:43:40;;;;;;;;;;;;;;;15.35;nan;99697.91;5042299;28;19921;-89
2023/11/14 01:46:06;;;;;;;;;;;;;;;15.42;nan;99703.69;5036840;28;20111;-89
2023/11/14 01:48:31;;;;;;;;;;;;;;;15.42;nan;99700.97;5042044;28;20560;-90
2023/11/14 01:50:56;;;;;;;;;;;;;;;15.45;nan;99696.09;5045200;28;19924;-90
2023/11/14 01:53:22;;;;;;;;;;;;;;;15.46;nan;99695.00;5049571;28;19923;-90
2023/11/14 01:55:47;;;;;;;;;;;;;;;15.49;nan;99694.38;5045123;28;20431;-91
2023/11/14 01:58:12;;;;;;;;;;;;;;;15.50;nan;99695.97;5043579;28;19935;-90
2023/11/14 02:00:38;;;;;;;;;;;;;;;15.52;nan;99691.84;5044073;28;20404;-90
2023/11/14 02:03:03;;;;;;;;;;;;;;;15.56;nan;99700.94;5044593;28;19959;-91
2023/11/14 02:05:29;;;;;;;;;;;;;;;15.59;nan;99694.16;5046279;28;20043;-90
2023/11/14 02:07:55;;;;;;;;;;;;;;;15.57;nan;99696.34;5048843;28;19948;-92
2023/11/14 02:10:20;;;;;;;;;;;;;;;15.62;nan;99690.88;5047537;28;20344;-89
2023/11/14 02:12:45;;;;;;;;;;;;;;;15.64;nan;99677.84;5046142;28;19923;-90
2023/11/14 02:15:11;;;;;;;;;;;;;;;15.63;nan;99692.47;5046641;28;20000;-91
2023/11/14 02:17:36;;;;;;;;;;;;;;;15.61;nan;99692.75;5045267;28;19924;-93
2023/11/14 02:20:02;;;;;;;;;;;;;;;15.64;nan;99696.75;5044331;28;19925;-90
2023/11/14 02:22:28;;;;;;;;;;;;;;;15.65;nan;99682.94;5045809;28;19923;-90
2023/11/14 02:24:57;;;;;;;;;;;;;;;15.65;nan;99687.53;5046919;28;19917;-90
2023/11/14 02:27:22;;;;;;;;;;;;;;;15.70;nan;99700.91;5049538;28;19917;-90
2023/11/14 02:29:50;;;;;;;;;;;;;;;15.72;nan;99693.31;5044953;28;20544;-90
2023/11/14 02:32:15;;;;;;;;;;;;;;;15.73;nan;99692.19;5043102;28;19921;-90
2023/11/14 02:34:42;;;;;;;;;;;;;;;15.74;nan;99693.00;5040883;28;19925;-90
2023/11/14 02:37:07;;;;;;;;;;;;;;;15.75;nan;99689.19;5049219;28;19964;-90
2023/11/14 02:39:33;;;;;;;;;;;;;;;15.74;nan;99693.78;5047961;28;19925;-90
2023/11/14 02:41:58;;;;;;;;;;;;;;;15.77;nan;99698.56;5048267;28;20388;-90
2023/11/14 02:44:25;;;;;;;;;;;;;;;15.76;nan;99699.69;5045344;28;19916;-91
2023/11/14 02:46:51;;;;;;;;;;;;;;;15.75;nan;99702.69;5040750;28;20004;-90
2023/11/14 02:49:16;;;;;;;;;;;;;;;15.72;nan;99696.00;5043888;28;20561;-89
2023/11/14 02:51:41;;;;;;;;;;;;;;;15.77;nan;99698.56;5048462;28;20072;-90
2023/11/14 02:54:06;;;;;;;;;;;;;;;15.80;nan;99699.84;5032751;28;19917;-90
2023/11/14 02:56:32;;;;;;;;;;;;;;;15.79;nan;99699.06;5031822;28;19979;-90
2023/11/14 02:59:00;;;;;;;;;;;;;;;15.79;nan;99701.75;5035829;28;20212;-90
2023/11/14 03:01:25;;;;;;;;;;;;;;;15.80;nan;99695.28;5035496;28;19929;-91
2023/11/14 03:03:50;;;;;;;;;;;;;;;15.77;nan;99698.56;5042238;28;20431;-90
2023/11/14 03:06:16;;;;;;;;;;;;;;;15.73;nan;99700.28;5044159;28;20004;-90
2023/11/14 03:08:41;;;;;;;;;;;;;;;15.76;nan;99705.06;5043859;28;19956;-91
2023/11/14 03:11:06;;;;;;;;;;;;;;;15.67;nan;99712.34;5042104;28;19921;-91
2023/11/14 03:13:32;;;;;;;;;;;;;;;15.67;nan;99723.13;5042050;28;19932;-90
2023/11/14 03:15:57;;;;;;;;;;;;;;;15.65;nan;99715.34;5042923;28;19917;-90
2023/11/14 03:18:22;;;;;;;;;;;;;;;15.61;nan;99703.53;5050058;28;19920;-89
2023/11/14 03:20:48;;;;;;;;;;;;;;;15.56;nan;99705.53;5043211;28;19940;-90
2023/11/14 03:23:13;;;;;;;;;;;;;;;15.54;nan;99705.06;5048227;28;19916;-90
2023/11/14 03:25:39;;;;;;;;;;;;;;;15.57;nan;99702.53;5048015;28;19925;-91
2023/11/14 03:28:04;;;;;;;;;;;;;;;15.53;nan;99706.16;5044935;28;20011;-92
2023/11/14 03:30:30;;;;;;;;;;;;;;;15.50;nan;99715.66;5043610;28;19959;-91
2023/11/14 03:32:55;;;;;;;;;;;;;;;15.53;nan;99704.25;5042053;28;19921;-90
2023/11/14 03:35:20;;;;;;;;;;;;;;;15.54;nan;99705.06;5049454;28;20422;-90
2023/11/14 03:37:46;;;;;;;;;;;;;;;15.49;nan;99707.88;5029163;28;19975;-90
2023/11/14 03:40:11;;;;;;;;;;;;;;;15.47;nan;99699.28;5042433;28;20050;-90
2023/11/14 03:42:37;;;;;;;;;;;;;;;15.51;nan;99703.75;5043349;28;19917;-91
2023/11/14 03:45:03;;;;;;;;;;;;;;;15.50;nan;99709.47;5042665;28;19923;-91
2023/11/14 03:47:28;;;;;;;;;;;;;;;15.45;nan;99698.81;5046490;28;19917;-90
2023/11/14 03:49:53;;;;;;;;;;;;;;;15.43;nan;99702.56;5048575;28;20295;-91
2023/11/14 03:52:19;;;;;;;;;;;;;;;15.41;nan;99704.00;5048172;28;19929;-90
2023/11/14 03:54:44;;;;;;;;;;;;;;;15.39;nan;99701.59;5048325;28;19917;-90
2023/11/14 03:57:10;;;;;;;;;;;;;;;15.40;nan;99697.00;5051125;28;19917;-90
2023/11/14 03:59:36;;;;;;;;;;;;;;;15.36;nan;99696.81;5047718;28;19921;-91
2023/11/14 04:02:01;;;;;;;;;;;;;;;15.33;nan;99697.44;5046271;28;19916;-91
2023/11/14 04:04:27;;;;;;;;;;;;;;;15.32;nan;99695.84;5044404;28;20423;-91
2023/11/14 04:06:52;;;;;;;;;;;;;;;15.29;nan;99707.25;5052026;28;19925;-90
2023/11/14 04:09:18;;;;;;;;;;;;;;;15.32;nan;99716.63;5055278;28;19944;-90
2023/11/14 04:11:47;;;;;;;;;;;;;;;15.33;nan;99708.22;5051633;28;20340;-90
2023/11/14 04:14:12;;;;;;;;;;;;;;;15.38;nan;99710.78;5042386;28;19932;-91
2023/11/14 04:16:38;;;;;;;;;;;;;;;15.39;nan;99695.41;5037890;28;19921;-91
2023/11/14 04:19:03;;;;;;;;;;;;;;;15.46;nan;99705.78;5037663;28;19976;-91
2023/11/14 04:21:28;;;;;;;;;;;;;;;15.42;nan;99705.59;5044533;28;19979;-91
2023/11/14 04:23:53;;;;;;;;;;;;;;;15.49;nan;99702.47;5051082;28;19924;-90
2023/11/14 04:26:19;;;;;;;;;;;;;;;15.51;nan;99689.47;5051940;28;19916;-89
2023/11/14 04:28:44;;;;;;;;;;;;;;;15.53;nan;99688.06;5045366;28;19924;-91
2023/11/14 04:31:10;;;;;;;;;;;;;;;15.61;nan;99697.34;5052839;28;19917;-91
2023/11/14 04:33:35;;;;;;;;;;;;;;;15.62;nan;99699.75;5047428;28;20543;-91
2023/11/14 04:36:00;;;;;;;;;;;;;;;15.65;nan;99703.75;5029808;28;19920;-90
2023/11/14 04:38:26;;;;;;;;;;;;;;;15.68;nan;99695.81;5051974;28;19921;-91
2023/11/14 04:40:51;;;;;;;;;;;;;;;15.68;nan;99689.63;5052548;28;20678;-91
2023/11/14 04:43:16;;;;;;;;;;;;;;;15.68;nan;99678.81;5043594;28;19925;-90
2023/11/14 04:45:42;;;;;;;;;;;;;;;15.71;nan;99681.69;5049864;28;19963;-90
2023/11/14 04:48:07;;;;;;;;;;;;;;;15.72;nan;99679.78;5044166;28;19917;-91
2023/11/14 04:50:32;;;;;;;;;;;;;;;15.72;nan;99677.09;5049409;28;19920;-92
2023/11/14 04:52:58;;;;;;;;;;;;;;;15.68;nan;99676.13;5047772;28;19921;-92
2023/11/14 04:55:23;;;;;;;;;;;;;;;15.67;nan;99674.53;5050274;28;19917;-90
2023/11/14 04:57:48;;;;;;;;;;;;;;;15.68;nan;99687.72;5028147;28;19921;-91
2023/11/14 05:00:14;;;;;;;;;;;;;;;15.74;nan;99674.88;5041064;28;19924;-91
2023/11/14 05:02:39;;;;;;;;;;;;;;;15.77;nan;99681.56;5046944;28;19928;-90
2023/11/14 05:05:05;;;;;;;;;;;;;;;15.82;nan;99676.84;5043501;28;19953;-91
2023/11/14 05:07:30;;;;;;;;;;;;;;;15.81;nan;99664.47;5045577;28;20360;-91
2023/11/14 05:09:56;;;;;;;;;;;;;;;15.81;nan;99671.75;5046964;28;20004;-91
2023/11/14 05:12:21;;;;;;;;;;;;;;;15.74;nan;99666.78;5052385;28;20008;-92
2023/11/14 05:14:46;;;;;;;;;;;;;;;15.74;nan;99665.97;5047529;28;19929;-91
2023/11/14 05:17:11;;;;;;;;;;;;;;;15.75;nan;99679.19;5049263;28;19921;-91
2023/11/14 05:19:37;;;;;;;;;;;;;;;15.75;nan;99676.47;5048272;28;19921;-90
2023/11/14 05:22:02;;;;;;;;;;;;;;;15.79;nan;99671.25;5048008;28;20390;-92
2023/11/14 05:24:27;;;;;;;;;;;;;;;15.71;nan;99692.50;5050732;28;19921;-91
2023/11/14 05:26:53;;;;;;;;;;;;;;;15.69;nan;99662.31;5049188;28;20377;-91
2023/11/14 05:29:18;;;;;;;;;;;;;;;15.71;nan;99653.91;5054375;28;21652;-90
2023/11/14 05:31:43;;;;;;;;;;;;;;;15.75;nan;99654.06;5047103;28;19959;-91
2023/11/14 05:34:09;;;;;;;;;;;;;;;15.75;nan;99651.38;5043532;28;19923;-90
2023/11/14 05:36:37;;;;;;;;;;;;;;;15.74;nan;99672.19;5049205;28;20385;-90
2023/11/14 05:39:04;;;;;;;;;;;;;;;15.75;nan;99656.78;5045690;28;19932;-91
2023/11/14 05:41:29;;;;;;;;;;;;;;;15.69;nan;99653.41;5048716;28;19928;-90
2023/11/14 05:43:55;;;;;;;;;;;;;;;15.65;nan;99655.16;5049263;28;19936;-90
2023/11/14 05:46:20;;;;;;;;;;;;;;;15.64;nan;99662.44;5050604;28;20370;-92
2023/11/14 05:48:46;;;;;;;;;;;;;;;15.67;nan;99658.31;5048695;28;19917;-91
2023/11/14 05:51:11;;;;;;;;;;;;;;;15.70;nan;99658.50;5046672;28;19968;-92
2023/11/14 05:53:36;;;;;;;;;;;;;;;15.64;nan;99650.84;5050064;28;20051;-91
2023/11/14 05:56:02;;;;;;;;;;;;;;;15.64;nan;99648.94;5046565;28;19917;-91
2023/11/14 05:58:27;;;;;;;;;;;;;;;15.67;nan;99664.53;5044465;28;19921;-91
2023/11/14 06:00:52;;;;;;;;;;;;;;;15.62;nan;99670.06;5047199;28;20492;-91
2023/11/14 06:03:19;;;;;;;;;;;;;;;15.63;nan;99665.47;5045714;28;19921;-91
2023/11/14 06:05:44;;;;;;;;;;;;;;;15.63;nan;99668.16;5038944;28;19921;-92
2023/11/14 06:08:09;;;;;;;;;;;;;;;15.63;nan;99662.75;5047426;28;20045;-90
2023/11/14 06:10:35;;;;;;;;;;;;;;;15.61;nan;99667.63;5033333;28;19969;-91
2023/11/14 06:13:00;;;;;;;;;;;;;;;15.73;nan;99661.69;5048628;28;19924;-91
2023/11/14 06:15:26;;;;;;;;;;;;;;;15.69;nan;99661.53;5047066;28;20317;-91
2023/11/14 06:17:52;;;;;;;;;;;;;;;15.71;nan;99662.00;5047898;28;19924;-91
2023/11/14 06:20:17;;;;;;;;;;;;;;;15.71;nan;99643.91;5043194;28;19917;-90
2023/11/14 06:22:42;;;;;;;;;;;;;;;15.73;nan;99651.69;5047234;28;20324;-91
2023/11/14 06:25:08;;;;;;;;;;;;;;;15.74;nan;99652.47;5049879;28;20904;-90
2023/11/14 06:27:33;;;;;;;;;;;;;;;15.79;nan;99649.66;5047485;28;20392;-91
2023/11/14 06:29:59;;;;;;;;;;;;;;;15.82;nan;99649.06;5043284;28;20021;-91
2023/11/14 06:32:28;;;;;;;;;;;;;;;15.89;nan;99650.19;5043097;28;20016;-90
2023/11/14 06:34:54;;;;;;;;;;;;;;;15.90;nan;99634.78;5047765;28;19924;-91
2023/11/14 06:37:19;;;;;;;;;;;;;;;15.96;nan;99647.03;5046169;28;19925;-90
2023/11/14 06:39:45;;;;;;;;;;;;;;;15.96;nan;99647.84;5047940;28;19925;-91
2023/11/14 06:42:10;;;;;;;;;;;;;;;16.02;nan;99641.22;5047367;28;19943;-90
2023/11/14 06:44:35;;;;;;;;;;;;;;;16.07;nan;99644.88;5044370;28;19975;-90
2023/11/14 06:47:01;;;;;;;;;;;;;;;16.13;nan;99646.31;5046101;28;19924;-91
2023/11/14 06:49:27;;;;;;;;;;;;;;;16.20;nan;99655.59;5026011;28;19917;-91
2023/11/14 06:51:52;;;;;;;;;;;;;;;16.20;nan;99655.59;5041806;28;19916;-91
2023/11/14 06:54:17;;;;;;;;;;;;;;;16.26;nan;99642.72;5046150;28;20003;-90
2023/11/14 06:56:43;;;;;;;;;;;;;;;16.28;nan;99635.09;5046118;28;20384;-90
2023/11/14 06:59:08;;;;;;;;;;;;;;;16.27;nan;99653.22;5044397;28;19929;-90
2023/11/14 07:01:34;;;;;;;;;;;;;;;16.23;nan;99632.56;5043679;28;19917;-90
2023/11/14 07:03:59;;;;;;;;;;;;;;;16.29;nan;99634.00;5040616;28;19948;-91
2023/11/14 07:06:24;;;;;;;;;;;;;;;16.32;nan;99638.78;5046285;28;19935;-90
2023/11/14 07:08:53;;;;;;;;;;;;;;;16.26;nan;99646.22;5048583;28;20013;-92
2023/11/14 07:11:18;;;;;;;;;;;;;;;16.30;nan;99644.50;5046177;28;20000;-90
2023/11/14 07:13:43;;;;;;;;;;;;;;;16.38;nan;99628.63;5042716;28;20020;-89
2023/11/14 07:16:09;;;;;;;;;;;;;;;16.45;nan;99629.75;5040713;28;20369;-90
2023/11/14 07:18:35;;;;;;;;;;;;;;;16.46;nan;99625.94;5045513;28;19927;-88
2023/11/14 07:21:01;;;;;;;;;;;;;;;16.47;nan;99630.25;5046394;28;19924;-89
2023/11/14 07:23:26;;;;;;;;;;;;;;;16.46;nan;99630.56;5047130;28;19923;-90
2023/11/14 07:25:52;;;;;;;;;;;;;;;16.51;nan;99636.59;5047700;28;19917;-91
2023/11/14 07:28:18;;;;;;;;;;;;;;;16.51;nan;99633.09;5049898;28;19916;-90
2023/11/14 07:30:45;;;;;;;;;;;;;;;16.56;nan;99632.97;5049836;28;20009;-90
2023/11/14 07:33:11;;;;;;;;;;;;;;;16.57;nan;99629.94;5054641;28;20104;-89
2023/11/14 07:35:37;;;;;;;;;;;;;;;16.63;nan;99625.97;5050775;28;20266;-90
2023/11/14 07:38:04;;;;;;;;;;;;;;;16.67;nan;99630.78;5055548;28;19916;-90
2023/11/14 07:40:30;;;;;;;;;;;;;;;16.68;nan;99629.66;5047136;28;20557;-89
2023/11/14 07:42:56;;;;;;;;;;;;;;;16.67;nan;99619.97;5054751;28;19997;-90
2023/11/14 07:45:21;;;;;;;;;;;;;;;16.73;nan;99651.19;5048168;28;19975;-91
2023/11/14 07:47:46;;;;;;;;;;;;;;;16.68;nan;99616.94;5050028;28;19921;-90
2023/11/14 07:50:12;;;;;;;;;;;;;;;16.74;nan;99620.31;5049315;28;19941;-89
2023/11/14 07:52:37;;;;;;;;;;;;;;;16.77;nan;99628.59;5034601;28;19924;-90
2023/11/14 07:55:03;;;;;;;;;;;;;;;16.79;nan;99641.78;5052772;28;19939;-89
2023/11/14 07:57:32;;;;;;;;;;;;;;;16.86;nan;99623.19;5052805;28;20407;-90
2023/11/14 07:59:58;;;;;;;;;;;;;;;16.87;nan;99622.84;5053788;28;20472;-89
2023/11/14 08:02:23;;;;;;;;;;;;;;;16.94;nan;99635.94;5050524;28;19916;-88
2023/11/14 08:04:52;;;;;;;;;;;;;;;17.02;nan;99637.03;5045726;28;20320;-88
2023/11/14 08:07:18;;;;;;;;;;;;;;;17.08;nan;99633.09;5051598;28;19912;-90
2023/11/14 08:09:43;;;;;;;;;;;;;;;17.12;nan;99642.16;5042250;28;20373;-89
2023/11/14 08:12:08;;;;;;;;;;;;;;;17.17;nan;99636.56;5045462;28;19917;-88
2023/11/14 08:14:34;;;;;;;;;;;;;;;17.13;nan;99632.91;5046605;28;19920;-90
2023/11/14 08:16:59;;;;;;;;;;;;;;;17.17;nan;99628.44;5047450;28;19913;-89
2023/11/14 08:19:24;;;;;;;;;;;;;;;17.21;nan;99641.03;5048149;28;19925;-90
2023/11/14 08:21:50;;;;;;;;;;;;;;;17.22;nan;99647.22;5044902;28;19996;-88
2023/11/14 08:24:15;;;;;;;;;;;;;;;17.26;nan;99642.00;5044019;28;19936;-89
2023/11/14 08:26:40;;;;;;;;;;;;;;;17.34;nan;99641.19;5051511;28;20047;-89
2023/11/14 08:29:05;;;;;;;;;;;;;;;17.40;nan;99637.19;5033182;28;19921;-89
2023/11/14 08:31:31;;;;;;;;;;;;;;;17.42;nan;99630.38;5051381;28;19920;-89
2023/11/14 08:33:56;;;;;;;;;;;;;;;17.46;nan;99635.94;5049331;28;19917;-90
2023/11/14 08:36:22;;;;;;;;;;;;;;;17.48;nan;99637.19;5048366;28;20390;-90
2023/11/14 08:38:47;;;;;;;;;;;;;;;17.51;nan;99650.09;5047573;28;19921;-91
2023/11/14 08:41:13;;;;;;;;;;;;;;;17.49;nan;99633.38;5050102;28;19913;-91
2023/11/14 08:43:40;;;;;;;;;;;;;;;17.46;nan;99638.63;5051874;28;19917;-90
2023/11/14 08:46:05;;;;;;;;;;;;;;;17.49;nan;99655.03;5047522;28;19920;-89
2023/11/14 08:48:31;;;;;;;;;;;;;;;17.60;nan;99643.88;5044940;28;19974;-90
2023/11/14 08:50:56;;;;;;;;;;;;;;;17.59;nan;99640.34;5041078;28;19917;-90
2023/11/14 08:53:21;;;;;;;;;;;;;;;17.67;nan;99652.31;5048366;28;19924;-90
2023/11/14 08:55:47;;;;;;;;;;;;;;;17.68;nan;99643.09;5049244;28;19956;-90
2023/11/14 08:58:12;;;;;;;;;;;;;;;17.70;nan;99638.94;5045769;28;19975;-89
2023/11/14 09:00:37;;;;;;;;;;;;;;;17.72;nan;99636.69;5052421;28;19996;-90
2023/11/14 09:03:04;;;;;;;;;;;;;;;17.73;nan;99651.84;5052051;28;19917;-90
2023/11/14 09:05:30;;;;;;;;;;;;;;;17.64;nan;99661.88;5045819;28;19932;-90
2023/11/14 09:07:55;;;;;;;;;;;;;;;17.62;nan;99666.81;5042537;28;20003;-88
2023/11/14 09:10:20;;;;;;;;;;;;;;;17.60;nan;99663.63;5053620;28;20007;-90
2023/11/14 09:12:47;;;;;;;;;;;;;;;17.56;nan;99659.94;5047062;28;19963;-90
2023/11/14 09:15:14;;;;;;;;;;;;;;;17.58;nan;99649.59;5052828;28;20352;-89
2023/11/14 09:17:40;;;;;;;;;;;;;;;17.53;nan;99663.31;5048288;28;20016;-90
2023/11/14 09:20:05;;;;;;;;;;;;;;;17.51;nan;99654.72;5047117;28;20007;-89
2023/11/14 09:22:31;;;;;;;;;;;;;;;17.48;nan;99648.03;5041644;28;20351;-90
2023/11/14 09:24:56;;;;;;;;;;;;;;;17.55;nan;99639.41;5044863;28;19917;-88
2023/11/14 09:27:24;;;;;;;;;;;;;;;17.58;nan;99644.19;5033614;28;19923;-89
2023/11/14 09:29:50;;;;;;;;;;;;;;;17.67;nan;99649.59;5052975;28;19970;-88
2023/11/14 09:32:19;;;;;;;;;;;;;;;17.76;nan;99645.75;5044907;28;19921;-89
2023/11/14 09:34:46;;;;;;;;;;;;;;;17.88;nan;99647.03;5049804;28;19916;-90
2023/11/14 09:37:11;;;;;;;;;;;;;;;17.93;nan;99639.50;5048944;28;20389;-90
2023/11/14 09:39:36;;;;;;;;;;;;;;;17.99;nan;99635.53;5042452;28;19931;-91
2023/11/14 09:42:02;;;;;;;;;;;;;;;17.95;nan;99637.25;5048804;28;19917;-88
2023/11/14 09:44:28;;;;;;;;;;;;;;;17.91;nan;99636.31;5042908;28;19924;-90
2023/11/14 09:46:55;;;;;;;;;;;;;;;17.92;nan;99646.03;5049226;28;19917;-89
2023/11/14 09:49:20;;;;;;;;;;;;;;;17.88;nan;99633.47;5033737;28;20051;-90
2023/11/14 09:51:47;;;;;;;;;;;;;;;17.88;nan;99658.66;5047363;28;20007;-92
2023/11/14 09:54:15;;;;;;;;;;;;;;;17.83;nan;99628.25;5048361;28;19923;-90
2023/11/14 09:56:44;;;;;;;;;;;;;;;17.76;nan;99640.34;5045897;28;19968;-91
2023/11/14 09:59:09;;;;;;;;;;;;;;;17.73;nan;99635.56;5048665;28;19936;-89
2023/11/14 10:01:35;;;;;;;;;;;;;;;17.83;nan;99631.75;5048469;28;19925;-89
2023/11/14 10:04:01;;;;;;;;;;;;;;;17.88;nan;99647.81;5049001;28;19962;-88
2023/11/14 10:06:26;;;;;;;;;;;;;;;17.89;nan;99633.16;5047641;28;19917;-91
2023/11/14 10:08:52;;;;;;;;;;;;;;;17.84;nan;99624.41;5040728;28;19917;-89
2023/11/14 10:11:17;;;;;;;;;;;;;;;17.77;nan;99633.00;5039319;28;19916;-90
2023/11/14 10:13:42;;;;;;;;;;;;;;;17.81;nan;99640.19;5043639;28;19927;-88
2023/11/14 10:16:16;;;;;;;;;;;;;;;17.87;nan;99656.28;5034661;28;20534;-90
2023/11/14 10:18:41;;;;;;;;;;;;;;;17.88;nan;99634.28;5045405;28;19964;-88
2023/11/14 10:21:21;;;;;;;;;;;;;;;17.85;nan;99647.66;5041172;28;19995;-91
2023/11/14 10:23:46;;;;;;;;;;;;;;;17.83;nan;99633.66;5037573;28;19928;-90
2023/11/14 10:26:11;;;;;;;;;;;;;;;17.84;nan;99636.03;5044095;28;19917;-87
2023/11/14 10:28:37;;;;;;;;;;;;;;;17.91;nan;99630.91;5041804;28;19928;-89
2023/11/14 10:31:02;;;;;;;;;;;;;;;18.03;nan;99624.81;5046778;28;19975;-89
2023/11/14 10:33:38;;;;;;;;;;;;;;;18.07;nan;99647.44;5043055;28;19917;-90
2023/11/14 10:36:08;;;;;;;;;;;;;;;18.08;nan;99632.75;5042046;28;19928;-90
2023/11/14 10:38:33;;;;;;;;;;;;;;;18.05;nan;99636.13;5044619;28;19936;-89
2023/11/14 10:40:59;;;;;;;;;;;;;;;18.06;nan;99624.16;5041837;28;20278;-88
2023/11/14 10:43:29;;;;;;;;;;;;;;;18.10;nan;99633.22;5038734;28;20559;-89
2023/11/14 10:45:55;;;;;;;;;;;;;;;18.15;nan;99624.94;5038073;28;19925;-89
2023/11/14 10:48:21;;;;;;;;;;;;;;;18.22;nan;99629.84;5046572;28;19916;-90
2023/11/14 10:50:47;;;;;;;;;;;;;;;18.30;nan;99634.41;5049971;28;20500;-89
2023/11/14 10:53:13;;;;;;;;;;;;;;;18.41;nan;99633.75;5046083;28;19923;-89
2023/11/14 10:55:39;;;;;;;;;;;;;;;18.56;nan;99645.16;5038730;28;19921;-89
2023/11/14 10:58:06;;;;;;;;;;;;;;;18.67;nan;99641.78;5045368;28;19917;-90
2023/11/14 11:00:34;;;;;;;;;;;;;;;18.67;nan;99640.94;5039839;28;19920;-88
2023/11/14 11:03:00;;;;;;;;;;;;;;;18.64;nan;99649.75;5044465;28;19975;-90
2023/11/14 11:05:31;;;;;;;;;;;;;;;18.66;nan;99651.00;5046103;28;19947;-89
2023/11/14 11:07:58;;;;;;;;;;;;;;;18.75;nan;99663.75;5043369;28;19917;-91
2023/11/14 11:10:24;;;;;;;;;;;;;;;18.68;nan;99658.84;5030731;28;19917;-88
2023/11/14 11:12:51;;;;;;;;;;;;;;;18.61;nan;99656.59;5044696;28;20385;-89
2023/11/14 11:15:16;;;;;;;;;;;;;;;18.56;nan;99667.66;5046457;28;19971;-90
2023/11/14 11:17:43;;;;;;;;;;;;;;;18.55;nan;99660.63;5043049;28;19924;-89
2023/11/14 11:20:31;;;;;;;;;;;;;;;18.51;nan;99653.50;5046347;28;20120;-89
2023/11/14 11:23:10;;;;;;;;;;;;;;;18.58;nan;99662.69;5041176;28;19994;-89
2023/11/14 11:25:45;;;;;;;;;;;;;;;18.60;nan;99671.28;5038811;28;19920;-90
2023/11/14 11:28:22;;;;;;;;;;;;;;;18.65;nan;99671.13;5050283;28;19929;-89
2023/11/14 11:31:03;;;;;;;;;;;;;;;18.68;nan;99667.00;5043560;28;19955;-90
2023/11/14 11:33:32;;;;;;;;;;;;;;;18.74;nan;99679.22;5045561;28;20512;-89
2023/11/14 11:36:16;;;;;;;;;;;;;;;18.73;nan;99669.50;5043285;28;19963;-87
2023/11/14 11:38:51;;;;;;;;;;;;;;;18.65;nan;99675.75;5037608;28;19929;-88
2023/11/14 11:41:18;;;;;;;;;;;;;;;18.67;nan;99678.94;5039156;28;20308;-87
2023/11/14 11:43:44;;;;;;;;;;;;;;;18.66;nan;99669.22;5038760;28;19917;-89
2023/11/14 11:46:29;;;;;;;;;;;;;;;18.65;nan;99675.75;5025931;28;19916;-88
2023/11/14 11:48:54;;;;;;;;;;;;;;;18.60;nan;99676.72;5049110;28;19916;-90
2023/11/14 11:51:20;;;;;;;;;;;;;;;18.63;nan;99678.00;5042324;28;20062;-89
2023/11/14 11:53:46;;;;;;;;;;;;;;;18.69;nan;99677.50;5047698;28;19952;-89
2023/11/14 11:56:12;;;;;;;;;;;;;;;18.69;nan;99691.06;5042319;28;20556;-89
2023/11/14 11:58:47;;;;;;;;;;;;;;;18.71;nan;99686.13;5046499;28;19921;-90
2023/11/14 12:01:14;;;;;;;;;;;;;;;18.64;nan;99677.69;5046354;28;19982;-90
2023/11/14 12:03:39;;;;;;;;;;;;;;;18.64;nan;99677.69;5036296;28;19933;-88
2023/11/14 12:06:09;;;;;;;;;;;;;;;18.53;nan;99681.06;5045029;28;19916;-90
2023/11/14 12:08:35;;;;;;;;;;;;;;;18.56;nan;99693.97;5040824;28;19923;-88
2023/11/14 12:11:00;;;;;;;;;;;;;;;18.55;nan;99686.97;5051385;28;20000;-89
2023/11/14 12:13:27;;;;;;;;;;;;;;;18.52;nan;99677.56;5041111;28;20016;-89
2023/11/14 12:15:52;;;;;;;;;;;;;;;18.47;nan;99679.66;5046895;28;20380;-88
2023/11/14 12:18:17;;;;;;;;;;;;;;;18.46;nan;99678.84;5047010;28;19923;-88
2023/11/14 12:20:44;;;;;;;;;;;;;;;18.44;nan;99681.09;5040801;28;19976;-88
2023/11/14 12:23:11;;;;;;;;;;;;;;;18.43;nan;99677.59;5039593;28;19920;-89
2023/11/14 12:25:36;;;;;;;;;;;;;;;18.42;nan;99676.00;5040445;28;19928;-91
2023/11/14 12:28:02;;;;;;;;;;;;;;;18.39;nan;99676.66;5044127;28;19921;-90
2023/11/14 12:30:27;;;;;;;;;;;;;;;18.38;nan;99677.00;5033867;28;19928;-89
2023/11/14 12:33:03;;;;;;;;;;;;;;;18.34;nan;99682.28;5046729;28;19920;-90
2023/11/14 12:35:42;;;;;;;;;;;;;;;18.34;nan;99690.41;5047789;28;19917;-88
2023/11/14 12:38:08;;;;;;;;;;;;;;;18.29;nan;99682.44;5049458;28;19923;-90
2023/11/14 12:40:34;;;;;;;;;;;;;;;18.29;nan;99676.22;5052765;28;20392;-90
2023/11/14 12:43:00;;;;;;;;;;;;;;;18.33;nan;99677.97;5049277;28;19921;-90
2023/11/14 12:45:27;;;;;;;;;;;;;;;18.38;nan;99680.50;5039663;28;20447;-88
2023/11/14 12:47:52;;;;;;;;;;;;;;;18.39;nan;99682.09;5045248;28;19924;-89
2023/11/14 12:50:24;;;;;;;;;;;;;;;18.39;nan;99690.22;5050016;28;19913;-89
2023/11/14 12:52:52;;;;;;;;;;;;;;;18.40;nan;99693.72;5046237;28;19925;-90
2023/11/14 12:55:17;;;;;;;;;;;;;;;18.39;nan;99687.50;5043916;28;19912;-90
2023/11/14 12:57:43;;;;;;;;;;;;;;;18.41;nan;99677.13;5050575;28;20285;-91
2023/11/14 13:00:11;;;;;;;;;;;;;;;18.41;nan;99687.97;5050393;28;19923;-88
2023/11/14 13:02:36;;;;;;;;;;;;;;;18.40;nan;99685.59;5049520;28;19923;-91